Etusivu
METAR-TAF:

METAR-TAF

Lentoasemat :

Fort Hood / Killeen, Texas, Yhdysvallat

Leveyspiiri: 31-04N, Pituuspiiri: 097-50W, korkeus merenpinnasta: 309 m

Tämänhetkinen sää

Tämä raportti tehtiin 47 minuuttia sitten, kello 16.58 UTC
Tuuli 10 kn etelästä/kaakosta
Lämpötila 33°C
Kosteus 41%
Ilmanpaine 1018 hPa
Näkyvyys: 16.1 km
selkeää

METAR: KGRK 071658Z AUTO 15010KT 10SM CLR 33/18 A3006 RMK AO2 SLP166 T03290178

Aika: 12:45 (17:45 UTC)

Sääennuste

Tämä raportti tehtiin 1 tunti ja 45 minuuttia sitten, kello 16.00 UTC
Ennuste voimassa 07. päivästä klo 16 UTC - 08. päivään klo 22 UTC
Tuuli 10 kn etelästä puuskistuen 15 kn:hen
Näkyvyys 10 km tai enemmän
Muutamia pilviä 4000 ft:n korkeudessa

TAF: KGRK 071600Z 0716/0822 18010G15KT 9999 FEW040 QNH2992INS TX36/0721Z TN26/0812Z

Säähavainnot ja -ennusteet yli 4000 lentoasemalta (METAR- ja TAF-raportit).

Käytössä olevat sääasemat on merkitty karttaan keltaisilla ja punaisilla pisteillä.

Aseta hiiri pisteen päälle nähdäksesi sääaseman nimen.

Klikkaa sitten nähdäksesi säähavainnot ja -ennusteet.

Kartan vaihtaminen: klikkaa mustalla rastilla varustettuja vihreitä pisteitä, niin voit zoomata sisään; viivalla varustettua vihreää pistettä, niin voit zoomata ulos tai vihreitä nuolia, niin pääset viereisille kartoille.


METAR-TAF: